Time;durP1;ratioP1;P1;durP2;ratioP2;P2;SDS_P1;SDS_P2;PMS_P1;PMS_P2;Temp;Humidity;BMP_temperature;BMP_pressure;BME280_temperature;BME280_humidity;BME280_pressure;Samples;Min_cycle;Max_cycle;Signal;HPM_P1;HPM_P2
2022/06/08 00:00:46;;;;;;;2.35;2.05;;;15.70;99.90;;;;;;4326025;28;10000902;-81
2022/06/08 00:03:47;;;;;;;1.83;1.73;;;15.60;99.90;;;;;;5003890;28;20033;-81
2022/06/08 00:06:15;;;;;;;2.63;1.90;;;15.60;99.90;;;;;;4933325;28;20042;-81
2022/06/08 00:08:41;;;;;;;2.85;2.00;;;15.60;99.90;;;;;;4993223;28;20030;-81
2022/06/08 00:11:07;;;;;;;5.00;1.98;;;15.50;99.90;;;;;;5000154;28;20075;-81
2022/06/08 00:13:33;;;;;;;2.05;1.90;;;15.50;99.90;;;;;;4997002;28;20109;-81
2022/06/08 00:15:59;;;;;;;3.85;1.88;;;15.50;99.90;;;;;;5001744;28;20133;-81
2022/06/08 00:18:24;;;;;;;3.13;1.90;;;15.50;99.90;;;;;;5001409;28;20501;-81
2022/06/08 00:20:51;;;;;;;2.78;1.95;;;15.50;99.90;;;;;;4996822;28;20077;-81
2022/06/08 00:23:17;;;;;;;1.90;1.80;;;15.50;99.90;;;;;;4986353;28;20054;-81
2022/06/08 00:25:43;;;;;;;2.50;1.80;;;15.50;99.90;;;;;;5000737;28;20501;-81
2022/06/08 00:28:08;;;;;;;3.03;1.90;;;15.60;99.90;;;;;;5003977;28;20053;-80
2022/06/08 00:30:34;;;;;;;2.92;2.25;;;15.50;99.90;;;;;;4985052;28;20030;-81
2022/06/08 00:33:00;;;;;;;2.67;2.25;;;15.60;99.90;;;;;;4998854;28;20045;-81
2022/06/08 00:35:27;;;;;;;5.43;2.55;;;15.60;99.90;;;;;;5010206;28;20029;-81
2022/06/08 00:37:52;;;;;;;2.58;2.30;;;15.60;99.90;;;;;;5024354;28;20038;-81
2022/06/08 00:40:22;;;;;;;2.15;1.95;;;15.60;99.90;;;;;;5021422;28;20128;-81
2022/06/08 00:42:49;;;;;;;4.25;2.30;;;15.60;99.90;;;;;;5026011;28;20420;-81
2022/06/08 00:45:19;;;;;;;3.83;2.25;;;15.60;99.90;;;;;;5021888;28;20033;-81
2022/06/08 00:47:57;;;;;;;2.30;2.20;;;15.60;99.90;;;;;;5015274;28;20028;-81
2022/06/08 00:50:30;;;;;;;2.53;2.22;;;15.70;99.90;;;;;;5021995;28;20628;-81
2022/06/08 00:52:56;;;;;;;;;;;15.70;99.90;;;;;;5021324;28;20150;-81
2022/06/08 00:55:26;;;;;;;4.55;2.30;;;15.60;99.90;;;;;;5021408;28;20004;-81
2022/06/08 00:58:05;;;;;;;2.50;2.30;;;15.60;99.90;;;;;;5020804;28;20030;-81
2022/06/08 01:00:37;;;;;;;3.42;2.88;;;15.50;99.90;;;;;;5020399;28;20091;-81
2022/06/08 01:03:04;;;;;;;3.17;2.20;;;15.70;99.90;;;;;;5018920;28;20037;-81
2022/06/08 01:05:46;;;;;;;2.72;2.53;;;15.30;99.90;;;;;;5018186;28;20064;-81
2022/06/08 01:08:35;;;;;;;3.95;2.80;;;15.60;99.90;;;;;;5011531;28;20029;-81
2022/06/08 01:11:09;;;;;;;3.63;2.70;;;15.60;99.90;;;;;;5017103;28;20104;-81
2022/06/08 01:13:37;;;;;;;2.60;2.40;;;15.60;99.90;;;;;;5022022;28;20030;-81
2022/06/08 01:16:08;;;;;;;3.60;2.75;;;15.60;99.90;;;;;;5025475;28;20033;-81
2022/06/08 01:18:34;;;;;;;4.20;2.60;;;15.50;99.90;;;;;;5023862;28;20113;-81
2022/06/08 01:21:18;;;;;;;2.75;2.42;;;15.50;99.90;;;;;;5017885;28;20040;-81
2022/06/08 01:23:45;;;;;;;2.90;2.70;;;15.40;99.90;;;;;;5024127;28;20041;-81
2022/06/08 01:26:17;;;;;;;3.55;3.25;;;15.40;99.90;;;;;;5014887;28;20583;-81
2022/06/08 01:28:54;;;;;;;4.13;2.95;;;15.40;99.90;;;;;;5021986;28;20037;-81
2022/06/08 01:31:37;;;;;;;3.75;3.13;;;15.40;99.90;;;;;;5011276;28;20041;-81
2022/06/08 01:34:25;;;;;;;3.72;3.40;;;15.40;99.90;;;;;;5006780;28;20111;-81
2022/06/08 01:36:56;;;;;;;3.83;3.10;;;15.40;99.90;;;;;;5010985;28;20053;-81
2022/06/08 01:39:43;;;;;;;3.47;3.17;;;15.40;99.90;;;;;;5023703;28;20025;-81
2022/06/08 01:42:35;;;;;;;2.90;2.70;;;15.40;99.90;;;;;;5022627;28;20037;-81
2022/06/08 01:48:05;;;;;;;5.65;3.60;;;15.30;99.90;;;;;;5011552;28;20113;-81
2022/06/08 01:50:54;;;;;;;6.75;3.25;;;15.20;99.90;;;;;;5011642;28;20577;-81
2022/06/08 01:53:31;;;;;;;6.22;3.83;;;15.20;99.90;;;;;;5027592;28;20044;-81
2022/06/08 01:56:00;;;;;;;4.85;3.22;;;15.10;99.90;;;;;;5016718;28;20132;-81
2022/06/08 01:58:48;;;;;;;4.80;3.38;;;15.10;99.90;;;;;;5014107;28;20029;-82
2022/06/08 02:01:35;;;;;;;4.22;3.30;;;15.10;99.90;;;;;;5017988;28;20026;-82
2022/06/08 02:04:09;;;;;;;6.88;3.83;;;15.00;99.90;;;;;;5016937;28;20033;-81
2022/06/08 02:06:57;;;;;;;5.28;3.65;;;15.00;99.90;;;;;;5029201;28;20040;-81
2022/06/08 02:09:34;;;;;;;4.32;3.75;;;15.00;99.90;;;;;;5025098;28;20029;-81
2022/06/08 02:12:06;;;;;;;4.22;3.80;;;15.00;99.90;;;;;;5022762;28;20380;-82
2022/06/08 02:14:47;;;;;;;4.38;3.55;;;14.90;99.90;;;;;;5020931;28;20488;-82
2022/06/08 02:17:52;;;;;;;3.90;3.60;;;15.00;99.90;;;;;;5022160;28;20033;-81
2022/06/08 02:20:22;;;;;;;6.28;3.50;;;14.90;99.90;;;;;;5004721;28;20506;-81
2022/06/08 02:22:55;;;;;;;7.50;4.00;;;14.90;99.90;;;;;;5017475;28;20072;-81
2022/06/08 02:25:30;;;;;;;3.88;3.47;;;14.80;99.90;;;;;;5023755;28;20025;-81
2022/06/08 02:28:04;;;;;;;3.95;3.55;;;14.80;99.90;;;;;;5023880;28;20030;-81
2022/06/08 02:30:38;;;;;;;7.15;3.90;;;14.70;99.90;;;;;;5017529;28;20030;-82
2022/06/08 02:36:23;;;;;;;7.88;4.43;;;14.70;99.90;;;;;;5018210;28;20091;-82
2022/06/08 02:38:55;;;;;;;5.50;4.07;;;14.60;99.90;;;;;;5022143;28;20057;-82
2022/06/08 02:41:22;;;;;;;5.70;4.03;;;14.60;99.90;;;;;;5027881;28;20565;-82
2022/06/08 02:44:02;;;;;;;7.93;4.25;;;14.50;99.90;;;;;;5021137;28;20061;-82
2022/06/08 02:46:53;;;;;;;7.38;4.57;;;14.50;99.90;;;;;;5024624;28;20018;-81
2022/06/08 02:49:19;;;;;;;4.22;3.83;;;14.50;99.90;;;;;;5017692;28;20156;-82
2022/06/08 02:51:48;;;;;;;4.88;4.20;;;14.40;99.90;;;;;;5024377;28;20120;-82
2022/06/08 02:54:19;;;;;;;4.70;4.05;;;14.40;99.90;;;;;;5023751;28;20395;-81
2022/06/08 02:56:57;;;;;;;8.95;4.80;;;14.40;99.90;;;;;;5011199;28;20449;-81
2022/06/08 02:59:52;;;;;;;5.05;4.57;;;14.40;99.90;;;;;;5021462;28;20021;-82
2022/06/08 03:02:28;;;;;;;8.32;4.30;;;14.40;99.90;;;;;;5023945;28;20099;-81
2022/06/08 03:05:08;;;;;;;5.63;4.50;;;14.50;99.90;;;;;;5027917;28;20022;-82
2022/06/08 03:08:01;;;;;;;7.25;4.70;;;14.50;99.90;;;;;;5018041;28;20109;-82
2022/06/08 03:10:32;;;;;;;5.55;4.03;;;14.50;99.90;;;;;;4992998;28;20029;-82
2022/06/08 03:13:21;;;;;;;5.68;4.38;;;14.50;99.90;;;;;;5009759;28;20486;-82
2022/06/08 03:15:57;;;;;;;11.15;4.90;;;14.50;99.90;;;;;;5012910;28;20409;-81
2022/06/08 03:18:22;;;;;;;5.43;3.90;;;14.50;99.90;;;;;;5025278;28;20108;-82
2022/06/08 03:20:48;;;;;;;5.18;4.35;;;14.50;99.90;;;;;;5026011;28;20117;-82
2022/06/08 03:23:15;;;;;;;5.35;4.20;;;14.50;99.90;;;;;;5026463;28;20116;-82
2022/06/08 03:25:41;;;;;;;5.63;4.10;;;14.50;99.90;;;;;;5015764;28;20037;-82
2022/06/08 03:28:06;;;;;;;5.55;3.97;;;14.60;99.90;;;;;;5024670;28;20021;-82
2022/06/08 03:30:32;;;;;;;6.75;4.10;;;14.60;99.90;;;;;;5024203;28;20025;-81
2022/06/08 03:32:58;;;;;;;6.43;4.43;;;14.60;99.90;;;;;;4985121;28;1197911;-82
2022/06/08 03:35:23;;;;;;;5.70;4.03;;;14.70;99.90;;;;;;5015538;28;20122;-82
2022/06/08 03:37:49;;;;;;;6.10;4.35;;;14.70;99.90;;;;;;5024356;28;20072;-82
2022/06/08 03:40:15;;;;;;;7.63;4.50;;;14.70;99.90;;;;;;5024409;28;20033;-82
2022/06/08 03:42:41;;;;;;;4.15;3.78;;;14.70;99.90;;;;;;5018626;28;20017;-82
2022/06/08 03:45:08;;;;;;;4.53;3.80;;;14.70;99.90;;;;;;5012111;28;20029;-82
2022/06/08 03:47:38;;;;;;;4.95;4.07;;;14.70;99.90;;;;;;5026642;28;20029;-82
2022/06/08 03:50:08;;;;;;;4.20;3.80;;;14.70;99.90;;;;;;5019567;28;20030;-82
2022/06/08 03:52:40;;;;;;;5.13;3.70;;;14.70;99.90;;;;;;5022628;28;20318;-82
2022/06/08 03:55:07;;;;;;;7.47;4.15;;;14.70;99.90;;;;;;5008097;28;20022;-82
2022/06/08 03:57:34;;;;;;;5.30;3.90;;;14.70;99.90;;;;;;5025010;28;20113;-82
2022/06/08 04:00:00;;;;;;;5.60;4.05;;;14.80;99.90;;;;;;5020800;28;20033;-82
2022/06/08 04:02:27;;;;;;;5.97;4.18;;;14.80;99.90;;;;;;5022292;28;20025;-82
2022/06/08 04:04:52;;;;;;;6.32;3.75;;;14.80;99.90;;;;;;5027749;28;20029;-82
2022/06/08 04:07:18;;;;;;;7.43;4.07;;;14.90;99.90;;;;;;5018695;28;20543;-82
2022/06/08 04:09:44;;;;;;;5.43;3.72;;;15.80;99.90;;;;;;5024475;28;20079;-82
2022/06/08 04:12:10;;;;;;;3.88;3.58;;;16.80;99.90;;;;;;5025722;28;20021;-82
2022/06/08 04:14:36;;;;;;;4.57;3.25;;;17.00;99.90;;;;;;5026685;28;20021;-82
2022/06/08 04:17:02;;;;;;;5.05;3.33;;;18.80;99.90;;;;;;5024029;28;20048;-82
2022/06/08 04:19:29;;;;;;;3.45;2.70;;;20.30;99.90;;;;;;5017549;28;20513;-82
2022/06/08 04:21:55;;;;;;;5.05;3.05;;;21.40;99.90;;;;;;5022945;28;20563;-82
2022/06/08 04:24:23;;;;;;;6.18;2.83;;;22.10;99.90;;;;;;5019641;28;20038;-82
2022/06/08 04:26:49;;;;;;;4.90;2.80;;;22.30;99.90;;;;;;5026398;28;20026;-81
2022/06/08 04:29:15;;;;;;;5.53;2.63;;;21.50;99.90;;;;;;5012505;28;20022;-83
2022/06/08 04:31:41;;;;;;;4.30;2.72;;;20.70;99.90;;;;;;5008862;28;20101;-82
2022/06/08 04:34:09;;;;;;;5.35;2.60;;;20.10;99.90;;;;;;5017502;28;20053;-82
2022/06/08 04:36:35;;;;;;;3.13;2.63;;;19.50;99.90;;;;;;5021780;28;20041;-82
2022/06/08 04:39:02;;;;;;;4.03;2.50;;;19.00;99.90;;;;;;5022210;28;20037;-82
2022/06/08 04:41:28;;;;;;;2.58;2.38;;;18.50;99.90;;;;;;5025213;28;20041;-81
2022/06/08 04:43:54;;;;;;;3.50;2.75;;;18.20;99.90;;;;;;5025360;28;20041;-82
2022/06/08 04:46:20;;;;;;;3.53;2.95;;;18.10;99.90;;;;;;5024543;28;20112;-81
2022/06/08 04:48:47;;;;;;;4.82;2.78;;;18.10;99.90;;;;;;5020957;28;20018;-82
2022/06/08 04:51:14;;;;;;;2.50;2.22;;;18.10;99.90;;;;;;5023599;28;20597;-81
2022/06/08 04:53:42;;;;;;;5.43;3.10;;;18.10;99.90;;;;;;5016890;28;20022;-82
2022/06/08 04:56:08;;;;;;;4.38;2.90;;;18.00;99.90;;;;;;5023474;28;20065;-82
2022/06/08 04:58:34;;;;;;;2.90;2.60;;;18.10;99.90;;;;;;5023291;28;20719;-81
2022/06/08 05:01:00;;;;;;;3.20;2.35;;;18.10;99.90;;;;;;5023143;28;20039;-82
2022/06/08 05:03:26;;;;;;;4.18;2.53;;;18.10;99.90;;;;;;5012982;28;20121;-81
2022/06/08 05:05:51;;;;;;;3.22;2.88;;;18.00;99.90;;;;;;5011196;28;20118;-82
2022/06/08 05:08:18;;;;;;;3.35;3.05;;;17.90;99.90;;;;;;5018073;28;20101;-82
2022/06/08 05:10:45;;;;;;;3.28;2.92;;;17.80;99.90;;;;;;5019630;28;20079;-82
2022/06/08 05:13:12;;;;;;;4.00;3.55;;;17.70;99.90;;;;;;5027255;28;20032;-82
2022/06/08 05:15:40;;;;;;;5.75;3.17;;;17.60;99.90;;;;;;5023967;28;20032;-82
2022/06/08 05:18:07;;;;;;;3.85;3.50;;;17.50;99.90;;;;;;5011188;28;20120;-82
2022/06/08 05:20:34;;;;;;;5.68;3.53;;;17.40;99.90;;;;;;5012070;28;20072;-82
2022/06/08 05:23:00;;;;;;;4.90;3.95;;;17.30;99.90;;;;;;5023239;28;20478;-82
2022/06/08 05:25:39;;;;;;;4.47;3.80;;;17.30;99.90;;;;;;5023738;28;20033;-82
2022/06/08 05:28:06;;;;;;;4.40;3.42;;;17.50;99.90;;;;;;5020244;28;20115;-82
2022/06/08 05:30:32;;;;;;;3.83;3.42;;;17.70;99.90;;;;;;5021308;28;20087;-82
2022/06/08 05:32:58;;;;;;;5.30;3.85;;;18.00;99.90;;;;;;5017997;28;20453;-82
2022/06/08 05:35:24;;;;;;;4.93;3.33;;;18.20;99.90;;;;;;5009137;28;20061;-82
2022/06/08 05:37:50;;;;;;;6.05;3.47;;;18.30;99.90;;;;;;5021006;28;20029;-82
2022/06/08 05:40:16;;;;;;;4.00;2.95;;;18.30;99.90;;;;;;5017892;28;20398;-82
2022/06/08 05:42:42;;;;;;;4.72;2.95;;;18.40;99.90;;;;;;5006502;28;20022;-82
2022/06/08 05:45:12;;;;;;;6.60;3.47;;;18.40;99.90;;;;;;5013551;28;20058;-82
2022/06/08 05:47:37;;;;;;;3.80;2.90;;;18.40;99.90;;;;;;5024738;28;20775;-82
2022/06/08 05:50:04;;;;;;;3.60;3.20;;;18.30;99.90;;;;;;5010739;28;20117;-82
2022/06/08 05:52:29;;;;;;;4.60;3.05;;;18.10;99.90;;;;;;5020857;28;20104;-82
2022/06/08 05:54:55;;;;;;;4.88;3.40;;;18.00;99.90;;;;;;5024752;28;20112;-82
2022/06/08 05:57:21;;;;;;;5.03;3.20;;;17.80;99.90;;;;;;5025769;28;20057;-82
2022/06/08 05:59:46;;;;;;;4.10;3.22;;;17.70;99.90;;;;;;5024046;28;20552;-82
2022/06/08 06:02:14;;;;;;;3.47;3.10;;;17.70;99.90;;;;;;5019427;28;21164;-82
2022/06/08 06:04:40;;;;;;;3.25;2.80;;;17.70;99.90;;;;;;5026149;28;20029;-81
2022/06/08 06:07:06;;;;;;;3.25;2.72;;;17.60;99.90;;;;;;5025292;28;20025;-81
2022/06/08 06:09:32;;;;;;;7.43;2.72;;;17.50;99.90;;;;;;5020332;28;20029;-81
2022/06/08 06:11:58;;;;;;;4.30;2.80;;;17.40;99.90;;;;;;5025386;28;20017;-81
2022/06/08 06:14:24;;;;;;;4.60;2.60;;;17.30;99.90;;;;;;5023417;28;20037;-81
2022/06/08 06:16:50;;;;;;;5.13;2.80;;;17.20;99.90;;;;;;5022662;28;20053;-81
2022/06/08 06:19:15;;;;;;;5.57;3.00;;;17.10;99.90;;;;;;5009042;28;20030;-81
2022/06/08 06:21:41;;;;;;;2.97;2.45;;;17.10;99.90;;;;;;5017645;28;20041;-81
2022/06/08 06:24:07;;;;;;;3.60;3.25;;;17.10;99.90;;;;;;5023025;28;20034;-81
2022/06/08 06:26:32;;;;;;;4.05;3.00;;;17.10;99.90;;;;;;5020276;28;20056;-81
2022/06/08 06:28:58;;;;;;;5.43;3.33;;;17.10;99.90;;;;;;5026358;28;20421;-86
2022/06/08 06:31:30;;;;;;;5.45;3.92;;;17.10;99.90;;;;;;5025234;28;20132;-86
2022/06/08 06:33:56;;;;;;;5.72;3.45;;;17.10;99.90;;;;;;5009257;28;20640;-86
2022/06/08 06:36:22;;;;;;;5.30;3.42;;;17.10;99.90;;;;;;5010371;28;20034;-86
2022/06/08 06:38:47;;;;;;;4.85;3.22;;;17.00;99.90;;;;;;5008480;28;20466;-85
2022/06/08 06:41:15;;;;;;;7.00;3.60;;;17.00;99.90;;;;;;5019632;28;20605;-86
2022/06/08 06:43:41;;;;;;;5.43;3.33;;;17.00;99.90;;;;;;5028545;28;20025;-86
2022/06/08 06:46:13;;;;;;;3.10;2.80;;;17.10;99.90;;;;;;5028785;28;20087;-86
2022/06/08 06:48:39;;;;;;;3.20;2.90;;;17.10;99.90;;;;;;5016242;28;20021;-91
2022/06/08 06:51:05;;;;;;;4.07;2.83;;;17.20;99.90;;;;;;5024881;28;20017;-91
2022/06/08 06:53:31;;;;;;;2.90;2.60;;;17.30;99.90;;;;;;5011908;28;20100;-90
2022/06/08 06:55:57;;;;;;;4.72;2.70;;;17.30;99.90;;;;;;5023268;28;20481;-90
2022/06/08 06:58:22;;;;;;;5.25;2.40;;;17.40;99.90;;;;;;5022239;28;20470;-90
2022/06/08 07:00:48;;;;;;;3.08;2.70;;;17.50;99.90;;;;;;5014333;28;20026;-91
2022/06/08 07:03:14;;;;;;;3.28;2.97;;;17.50;99.90;;;;;;5009489;28;20030;-89
2022/06/08 07:05:40;;;;;;;3.00;2.80;;;17.50;99.90;;;;;;5024759;28;20076;-90
2022/06/08 07:08:06;;;;;;;4.00;2.97;;;17.50;99.90;;;;;;5028467;28;20088;-90
2022/06/08 07:10:32;;;;;;;3.88;3.10;;;17.60;99.90;;;;;;5006936;28;20462;-91
2022/06/08 07:12:58;;;;;;;5.15;3.10;;;17.60;99.90;;;;;;5016918;28;20034;-90
2022/06/08 07:15:24;;;;;;;5.68;3.40;;;17.60;99.90;;;;;;5028557;28;20078;-91
2022/06/08 07:17:50;;;;;;;4.20;3.30;;;17.60;99.90;;;;;;5023083;28;20029;-89
2022/06/08 07:20:18;;;;;;;4.63;3.40;;;17.60;99.90;;;;;;5024754;28;20037;-90
2022/06/08 07:22:44;;;;;;;5.32;3.90;;;17.60;99.90;;;;;;5024880;28;20064;-90
2022/06/08 07:25:12;;;;;;;5.75;3.75;;;17.60;99.90;;;;;;5025293;28;20090;-90
2022/06/08 07:27:39;;;;;;;4.75;3.47;;;17.60;99.90;;;;;;5014538;28;20502;-90
2022/06/08 07:30:06;;;;;;;5.93;4.07;;;17.60;99.90;;;;;;5022187;28;20038;-89
2022/06/08 07:32:32;;;;;;;4.60;4.13;;;17.70;99.90;;;;;;5029181;28;20116;-89
2022/06/08 07:34:58;;;;;;;5.45;4.03;;;17.70;99.90;;;;;;5029349;28;20037;-88
2022/06/08 07:37:25;;;;;;;5.70;4.20;;;17.90;99.90;;;;;;5024643;28;20445;-88
2022/06/08 07:39:51;;;;;;;7.13;3.75;;;18.00;99.90;;;;;;5026719;28;20038;-88
2022/06/08 07:42:17;;;;;;;4.90;3.88;;;18.20;99.90;;;;;;5029249;28;20429;-89
2022/06/08 07:44:43;;;;;;;5.35;4.30;;;18.40;99.90;;;;;;5012083;28;20156;-87
2022/06/08 07:47:10;;;;;;;4.28;3.78;;;18.90;99.90;;;;;;5021965;28;20032;-89
2022/06/08 07:49:39;;;;;;;6.15;4.00;;;19.20;99.90;;;;;;5005377;28;20474;-88
2022/06/08 07:52:10;;;;;;;4.70;3.33;;;19.30;99.90;;;;;;5026427;28;20061;-89
2022/06/08 07:54:37;;;;;;;5.90;3.97;;;19.60;99.90;;;;;;5027479;28;20512;-89
2022/06/08 07:57:04;;;;;;;6.18;3.67;;;19.90;99.90;;;;;;5021821;28;20034;-88
2022/06/08 07:59:32;;;;;;;4.30;2.95;;;20.00;99.90;;;;;;5014971;28;20030;-88
2022/06/08 08:01:58;;;;;;;3.65;3.22;;;20.00;99.90;;;;;;5024360;28;20117;-88
2022/06/08 08:04:25;;;;;;;3.70;3.40;;;20.00;99.90;;;;;;5027335;28;20148;-88
2022/06/08 08:06:50;;;;;;;5.57;4.00;;;20.10;99.90;;;;;;5027107;28;20100;-88
2022/06/08 08:09:22;;;;;;;3.95;3.33;;;20.30;99.90;;;;;;5018522;28;20601;-87
2022/06/08 08:11:52;;;;;;;5.35;3.65;;;20.40;99.90;;;;;;5027433;28;20033;-88
2022/06/08 08:14:20;;;;;;;7.30;3.80;;;20.60;99.90;;;;;;5019554;28;20033;-88
2022/06/08 08:16:46;;;;;;;4.45;3.85;;;20.50;99.90;;;;;;5020303;28;20026;-88
2022/06/08 08:19:17;;;;;;;4.45;3.30;;;20.40;99.90;;;;;;5025334;28;20102;-88
2022/06/08 08:21:44;;;;;;;5.30;3.90;;;20.30;99.90;;;;;;5026839;28;20045;-87
2022/06/08 08:24:09;;;;;;;5.90;4.00;;;20.40;99.90;;;;;;5017940;28;20072;-87
2022/06/08 08:26:36;;;;;;;6.45;3.97;;;20.50;99.90;;;;;;5023626;28;20678;-87
2022/06/08 08:29:03;;;;;;;4.60;3.65;;;20.50;99.90;;;;;;5024096;28;20116;-85
2022/06/08 08:31:28;;;;;;;7.93;3.33;;;20.60;99.90;;;;;;5024567;28;20055;-85
2022/06/08 08:33:54;;;;;;;4.05;3.65;;;20.60;99.90;;;;;;5025572;28;20147;-85
2022/06/08 08:36:19;;;;;;;4.65;3.88;;;21.10;99.90;;;;;;5008105;28;20048;-85
2022/06/08 08:38:46;;;;;;;3.97;3.60;;;21.40;99.90;;;;;;5006211;28;20104;-86
2022/06/08 08:44:01;;;;;;;4.50;4.05;;;21.80;99.90;;;;;;5017651;28;20028;-85
2022/06/08 08:46:46;;;;;;;4.68;4.07;;;21.70;99.90;;;;;;5026925;28;20021;-85
2022/06/08 08:49:20;;;;;;;4.65;4.18;;;21.70;99.90;;;;;;5008985;28;20112;-85
2022/06/08 08:51:56;;;;;;;4.45;4.05;;;21.90;99.90;;;;;;5014305;28;20069;-85
2022/06/08 08:54:30;;;;;;;7.22;4.43;;;22.00;99.90;;;;;;5007352;28;20026;-85
2022/06/08 08:57:10;;;;;;;5.68;4.18;;;22.10;99.90;;;;;;5013580;28;20324;-84
2022/06/08 08:59:37;;;;;;;6.00;4.47;;;22.20;99.90;;;;;;5014237;28;20402;-84
2022/06/08 09:02:03;;;;;;;5.57;3.20;;;22.30;99.90;;;;;;5008327;28;20057;-84
2022/06/08 09:04:36;;;;;;;4.35;3.58;;;22.40;99.90;;;;;;5024265;28;20061;-84
2022/06/08 09:07:13;;;;;;;;;;;22.60;99.90;;;;;;5007558;28;20022;-84
2022/06/08 09:09:38;;;;;;;2.72;2.45;;;22.60;99.90;;;;;;5005878;28;19910;-84
2022/06/08 09:12:04;;;;;;;2.85;2.55;;;22.80;99.90;;;;;;5006951;28;20540;-84
2022/06/08 09:14:50;;;;;;;4.90;2.38;;;23.00;99.90;;;;;;5007396;28;20135;-81
2022/06/08 09:17:34;;;;;;;2.83;2.20;;;22.80;99.90;;;;;;5017768;28;20026;-81
2022/06/08 09:20:01;;;;;;;2.90;2.63;;;23.00;99.90;;;;;;5020676;28;20120;-81
2022/06/08 09:22:29;;;;;;;2.58;2.38;;;23.20;99.90;;;;;;5016259;28;20057;-81
2022/06/08 09:25:26;;;;;;;2.47;1.90;;;23.50;99.90;;;;;;5012976;28;20417;-81
2022/06/08 09:27:55;;;;;;;1.95;1.73;;;23.80;99.90;;;;;;5021489;28;20025;-81
2022/06/08 09:30:32;;;;;;;2.78;1.35;;;23.90;99.90;;;;;;5025378;28;20499;-81
2022/06/08 09:33:26;;;;;;;1.95;1.77;;;24.10;99.90;;;;;;5021249;28;20403;-81
2022/06/08 09:35:57;;;;;;;2.55;1.45;;;24.20;99.90;;;;;;5022886;28;20366;-82
2022/06/08 09:38:25;;;;;;;1.67;0.90;;;24.30;99.90;;;;;;5023507;28;20029;-79
2022/06/08 09:40:53;;;;;;;1.83;0.90;;;24.30;98.80;;;;;;5025318;28;20029;-79
2022/06/08 09:43:53;;;;;;;1.70;1.20;;;24.30;96.70;;;;;;5020160;28;20025;-79
2022/06/08 09:52:55;;;;;;;1.85;1.75;;;24.50;97.30;;;;;;5013577;28;20104;-81
2022/06/08 09:55:53;;;;;;;2.90;1.50;;;24.10;98.80;;;;;;5013669;28;20079;-80
2022/06/08 09:58:28;;;;;;;1.48;1.27;;;23.80;98.60;;;;;;5006048;28;20014;-80
2022/06/08 10:01:16;;;;;;;1.83;1.50;;;23.40;98.60;;;;;;5012708;28;20024;-79
2022/06/08 10:03:58;;;;;;;2.38;1.38;;;23.40;99.90;;;;;;5023700;28;20496;-78
2022/06/08 10:07:13;;;;;;;2.00;1.55;;;23.60;99.90;;;;;;5020234;28;20021;-78
2022/06/08 10:10:00;;;;;;;1.95;1.30;;;24.00;99.90;;;;;;5016768;28;20428;-78
2022/06/08 10:12:35;;;;;;;1.30;1.20;;;24.30;98.20;;;;;;5028022;28;20102;-78
2022/06/08 10:15:23;;;;;;;0.93;0.93;;;24.50;97.80;;;;;;5024334;28;20030;-77
2022/06/08 10:17:54;;;;;;;2.03;1.10;;;24.50;96.70;;;;;;5017939;28;20041;-77
2022/06/08 10:20:34;;;;;;;1.80;1.13;;;24.40;95.20;;;;;;5023088;28;20539;-78
2022/06/08 10:23:20;;;;;;;2.05;1.00;;;24.00;97.20;;;;;;5027966;28;20088;-78
2022/06/08 10:25:52;;;;;;;3.40;1.10;;;23.60;97.80;;;;;;5022446;28;20037;-78
2022/06/08 10:28:36;;;;;;;1.52;1.00;;;23.30;98.10;;;;;;5025538;28;20093;-77
2022/06/08 10:31:10;;;;;;;2.80;1.40;;;23.10;98.30;;;;;;5027109;28;20410;-78
2022/06/08 10:34:07;;;;;;;2.03;1.70;;;22.80;99.00;;;;;;5029688;28;20056;-77
2022/06/08 10:36:34;;;;;;;3.75;1.30;;;22.50;99.90;;;;;;5022649;28;20032;-78
2022/06/08 10:39:02;;;;;;;2.50;1.70;;;22.30;99.90;;;;;;5025974;28;20029;-78
2022/06/08 10:44:48;;;;;;;4.35;1.52;;;22.10;99.90;;;;;;4313311;28;10000779;-77
2022/06/08 10:47:13;;;;;;;2.25;1.70;;;22.00;99.90;;;;;;4974835;28;20070;-78
2022/06/08 10:49:39;;;;;;;2.50;1.65;;;22.00;99.90;;;;;;4976766;28;20046;-78
2022/06/08 10:52:34;;;;;;;4.13;1.55;;;22.00;99.90;;;;;;4984151;28;20030;-76
2022/06/08 10:55:18;;;;;;;1.77;1.30;;;22.00;99.90;;;;;;4969537;28;20043;-76
2022/06/08 10:57:49;;;;;;;;;;;22.00;99.90;;;;;;4984830;28;20081;-76
2022/06/08 11:00:28;;;;;;;1.80;1.50;;;22.10;99.90;;;;;;4982318;28;19936;-76
2022/06/08 11:03:19;;;;;;;4.55;1.23;;;22.10;99.90;;;;;;4979713;28;20018;-76
2022/06/08 11:05:47;;;;;;;2.83;1.30;;;22.30;99.90;;;;;;4983875;28;20039;-76
2022/06/08 11:08:23;;;;;;;1.80;1.30;;;22.40;99.90;;;;;;4985325;28;20685;-76
2022/06/08 11:10:54;;;;;;;4.97;1.30;;;22.50;99.90;;;;;;4984828;28;20042;-77
2022/06/08 11:13:22;;;;;;;2.35;1.10;;;23.00;99.90;;;;;;4971050;28;20225;-76
2022/06/08 11:16:06;;;;;;;1.65;0.90;;;23.10;99.90;;;;;;4981270;28;20030;-76
2022/06/08 11:18:41;;;;;;;1.15;0.82;;;23.50;99.90;;;;;;5024323;28;20037;-75
2022/06/08 11:21:29;;;;;;;1.05;0.70;;;23.70;99.10;;;;;;5012408;28;20020;-76
2022/06/08 11:24:26;;;;;;;2.20;0.90;;;23.70;98.50;;;;;;5008583;28;20486;-76
2022/06/08 11:27:17;;;;;;;4.00;0.70;;;23.90;97.10;;;;;;5005019;28;20625;-76
2022/06/08 11:29:51;;;;;;;1.20;0.70;;;24.20;96.30;;;;;;5023244;28;20033;-76
2022/06/08 11:32:20;;;;;;;;;;;24.40;94.20;;;;;;5020410;28;20693;-75
2022/06/08 11:35:01;;;;;;;2.35;0.68;;;24.70;94.40;;;;;;5016876;28;20042;-75
2022/06/08 11:37:44;;;;;;;1.45;0.65;;;24.90;91.20;;;;;;5017676;28;20037;-77
2022/06/08 11:40:12;;;;;;;;;;;25.10;92.10;;;;;;5024490;28;20569;-78
2022/06/08 11:42:50;;;;;;;1.23;0.70;;;25.50;91.50;;;;;;5020472;28;20296;-77
2022/06/08 11:45:34;;;;;;;1.42;0.70;;;25.60;86.50;;;;;;5024550;28;20374;-75
2022/06/08 11:48:32;;;;;;;0.70;0.50;;;25.70;85.60;;;;;;5027381;28;20049;-76
2022/06/08 11:51:01;;;;;;;3.40;0.40;;;25.90;84.80;;;;;;5026078;28;20153;-75
2022/06/08 11:53:35;;;;;;;1.52;0.50;;;26.00;72.40;;;;;;5020487;28;20036;-74
2022/06/08 11:56:32;;;;;;;0.85;0.40;;;25.60;71.40;;;;;;5010912;28;20037;-75
2022/06/08 11:59:01;;;;;;;2.20;0.63;;;25.20;73.40;;;;;;5011737;28;20048;-76
2022/06/08 12:01:49;;;;;;;4.07;0.57;;;25.00;75.50;;;;;;5017060;28;20034;-76
2022/06/08 12:04:19;;;;;;;2.70;0.50;;;25.00;78.90;;;;;;5008890;28;20083;-76
2022/06/08 12:06:46;;;;;;;1.92;0.60;;;24.80;79.30;;;;;;5014801;28;20033;-77
2022/06/08 12:09:20;;;;;;;0.65;0.52;;;24.50;80.90;;;;;;5004928;28;20034;-76
2022/06/08 12:11:48;;;;;;;4.07;0.60;;;24.40;80.70;;;;;;5017435;28;20026;-76
2022/06/08 12:14:36;;;;;;;2.35;0.60;;;24.40;82.20;;;;;;5008095;28;20194;-76
2022/06/08 12:17:08;;;;;;;1.77;0.80;;;24.20;84.30;;;;;;5023944;28;20044;-77
2022/06/08 12:19:58;;;;;;;2.08;0.77;;;24.10;83.60;;;;;;5025010;28;20466;-78
2022/06/08 12:22:31;;;;;;;3.75;0.85;;;24.00;82.40;;;;;;5024554;28;20053;-79
2022/06/08 12:25:22;;;;;;;2.83;0.93;;;24.10;82.40;;;;;;5024405;28;20437;-76
2022/06/08 12:28:00;;;;;;;3.60;0.80;;;24.00;80.60;;;;;;5016633;28;20397;-77
2022/06/08 12:30:32;;;;;;;1.67;0.60;;;24.00;82.10;;;;;;5003834;28;20033;-78
2022/06/08 12:32:59;;;;;;;3.50;0.80;;;24.00;82.10;;;;;;5005729;28;20050;-79
2022/06/08 12:35:41;;;;;;;4.03;0.57;;;24.20;82.40;;;;;;5004190;28;20351;-77
2022/06/08 12:38:16;;;;;;;3.83;0.60;;;24.40;81.10;;;;;;4999680;28;20113;-78
2022/06/08 12:40:55;;;;;;;2.08;0.52;;;24.40;77.80;;;;;;5002600;28;20034;-76
2022/06/08 12:43:21;;;;;;;1.40;0.70;;;24.60;79.00;;;;;;5003659;28;20101;-81
2022/06/08 12:46:08;;;;;;;2.58;0.70;;;24.80;77.40;;;;;;5005269;28;20498;-78
2022/06/08 12:48:39;;;;;;;1.42;0.65;;;25.10;79.20;;;;;;5004539;28;20429;-78
2022/06/08 12:51:32;;;;;;;2.42;0.70;;;25.50;79.70;;;;;;5003195;28;20034;-79
2022/06/08 12:54:00;;;;;;;1.63;0.85;;;25.80;79.40;;;;;;4973858;28;20045;-79
2022/06/08 12:56:26;;;;;;;3.08;0.70;;;25.90;72.80;;;;;;4988453;28;20444;-80
2022/06/08 12:58:54;;;;;;;3.22;0.82;;;25.70;74.50;;;;;;5004686;28;20040;-80
2022/06/08 13:01:23;;;;;;;5.32;0.70;;;25.40;74.50;;;;;;5004798;28;20100;-79
2022/06/08 13:03:49;;;;;;;2.90;0.77;;;25.10;74.10;;;;;;4999626;28;20061;-79
2022/06/08 13:06:15;;;;;;;3.65;0.88;;;24.80;74.20;;;;;;4991143;28;20022;-79
2022/06/08 13:08:41;;;;;;;7.60;0.95;;;24.50;75.20;;;;;;5002993;28;20021;-80
2022/06/08 13:11:13;;;;;;;1.35;0.50;;;24.40;75.60;;;;;;5005499;28;20061;-82
2022/06/08 13:13:39;;;;;;;3.80;0.70;;;24.40;76.70;;;;;;4990009;28;20034;-79
2022/06/08 13:16:28;;;;;;;2.53;0.70;;;24.50;74.30;;;;;;5001203;28;20038;-81
2022/06/08 13:18:55;;;;;;;2.58;0.60;;;24.60;72.40;;;;;;5005764;28;20042;-80
2022/06/08 13:21:22;;;;;;;3.35;0.77;;;24.60;76.20;;;;;;5008176;28;20040;-79
2022/06/08 13:23:48;;;;;;;2.15;0.77;;;24.60;75.50;;;;;;5002955;28;20036;-80
2022/06/08 13:26:24;;;;;;;3.83;0.88;;;24.60;74.80;;;;;;5007444;28;20034;-79
2022/06/08 13:28:50;;;;;;;1.30;0.57;;;24.50;75.10;;;;;;5005737;28;20061;-78
2022/06/08 13:31:22;;;;;;;3.90;0.60;;;24.40;73.90;;;;;;4990797;28;20368;-79